Time;durP1;ratioP1;P1;durP2;ratioP2;P2;SDS_P1;SDS_P2;PMS_P1;PMS_P2;Temp;Humidity;BMP_temperature;BMP_pressure;BME280_temperature;BME280_humidity;BME280_pressure;Samples;Min_cycle;Max_cycle;Signal;HPM_P1;HPM_P2
2023/01/14 00:01:16;;;;;;;14.25;3.15;;;11.90;52.40;;;;;;4923548;28;20060;-46
2023/01/14 00:03:43;;;;;;;13.95;3.05;;;11.90;52.40;;;;;;4921342;28;20063;-44
2023/01/14 00:06:14;;;;;;;26.85;4.57;;;11.90;52.40;;;;;;4923310;28;21461;-46
2023/01/14 00:08:42;;;;;;;21.13;3.70;;;11.90;52.30;;;;;;4919184;28;20054;-47
2023/01/14 00:11:12;;;;;;;17.73;3.17;;;11.90;52.40;;;;;;4924770;28;20062;-47
2023/01/14 00:13:41;;;;;;;19.38;3.70;;;11.90;52.50;;;;;;4924561;28;20059;-48
2023/01/14 00:16:12;;;;;;;16.38;3.65;;;11.80;52.40;;;;;;4922076;28;20059;-50
2023/01/14 00:18:39;;;;;;;24.52;4.07;;;11.90;52.40;;;;;;4920911;28;20053;-49
2023/01/14 00:21:10;;;;;;;25.77;4.07;;;11.80;52.40;;;;;;4919544;28;20066;-45
2023/01/14 00:23:39;;;;;;;22.35;3.63;;;11.80;52.40;;;;;;4922855;28;20057;-45
2023/01/14 00:26:08;;;;;;;21.35;3.35;;;11.80;52.30;;;;;;4926151;28;20533;-46
2023/01/14 00:28:36;;;;;;;18.42;4.18;;;11.80;52.30;;;;;;4933030;28;20064;-46
2023/01/14 00:31:05;;;;;;;23.60;3.65;;;11.80;52.30;;;;;;4931110;28;20055;-49
2023/01/14 00:33:33;;;;;;;16.30;3.22;;;11.70;52.40;;;;;;4932929;28;20055;-46
2023/01/14 00:36:00;;;;;;;11.80;3.00;;;11.80;52.30;;;;;;4935551;28;20464;-45
2023/01/14 00:38:28;;;;;;;17.58;3.33;;;11.70;52.20;;;;;;4934993;28;20055;-47
2023/01/14 00:41:06;;;;;;;15.77;2.78;;;11.70;52.10;;;;;;4932909;28;20418;-50
2023/01/14 00:43:34;;;;;;;17.58;3.60;;;11.70;52.50;;;;;;4932176;28;20059;-49
2023/01/14 00:46:01;;;;;;;23.85;3.22;;;11.70;52.00;;;;;;4934098;28;20570;-45
2023/01/14 00:48:28;;;;;;;20.42;3.42;;;11.70;52.00;;;;;;4938003;28;20082;-51
2023/01/14 00:50:56;;;;;;;16.92;3.28;;;11.70;51.90;;;;;;4937294;28;20051;-46
2023/01/14 00:53:23;;;;;;;14.07;2.60;;;11.70;51.90;;;;;;4936202;28;20526;-48
2023/01/14 00:55:50;;;;;;;13.07;2.33;;;11.60;51.90;;;;;;4936408;28;20065;-47
2023/01/14 00:58:19;;;;;;;18.90;3.13;;;11.60;51.90;;;;;;4936510;28;20415;-45
2023/01/14 01:00:46;;;;;;;16.55;2.75;;;11.60;52.00;;;;;;4937872;28;20078;-50
2023/01/14 01:03:14;;;;;;;20.98;3.08;;;11.60;52.00;;;;;;4932737;28;20063;-47
2023/01/14 01:05:42;;;;;;;12.13;2.80;;;11.60;52.00;;;;;;4968662;28;20061;-47
2023/01/14 01:08:13;;;;;;;11.55;2.30;;;11.50;52.00;;;;;;4933711;28;20056;-49
2023/01/14 01:10:42;;;;;;;12.65;2.70;;;11.60;52.10;;;;;;4933255;28;20113;-43
2023/01/14 01:13:10;;;;;;;14.50;3.30;;;11.60;52.20;;;;;;4935469;28;20055;-45
2023/01/14 01:15:39;;;;;;;12.05;2.60;;;11.50;52.20;;;;;;4936901;28;20480;-48
2023/01/14 01:18:07;;;;;;;16.27;3.10;;;11.50;52.30;;;;;;4936652;28;20055;-47
2023/01/14 01:20:35;;;;;;;20.25;2.85;;;11.50;52.30;;;;;;4934002;28;20063;-48
2023/01/14 01:23:02;;;;;;;15.77;2.80;;;11.50;52.40;;;;;;4934366;28;20065;-43
2023/01/14 01:25:30;;;;;;;18.60;3.40;;;11.50;52.50;;;;;;4933189;28;20057;-47
2023/01/14 01:27:58;;;;;;;19.77;3.30;;;11.50;52.50;;;;;;4938521;28;20059;-46
2023/01/14 01:30:27;;;;;;;17.52;3.80;;;11.50;52.50;;;;;;4963061;28;20052;-48
2023/01/14 01:32:56;;;;;;;17.92;3.45;;;11.40;52.50;;;;;;4931835;28;20055;-48
2023/01/14 01:35:24;;;;;;;17.45;3.05;;;11.40;52.50;;;;;;4934794;28;20051;-50
2023/01/14 01:37:52;;;;;;;20.20;3.35;;;11.40;52.60;;;;;;4936034;28;20051;-48
2023/01/14 01:40:20;;;;;;;21.85;3.42;;;11.40;52.50;;;;;;4939039;28;20093;-47
2023/01/14 01:42:56;;;;;;;17.98;3.60;;;11.40;52.60;;;;;;4936777;28;20522;-49
2023/01/14 01:45:31;;;;;;;25.25;3.83;;;11.40;52.60;;;;;;4940562;28;20055;-48
2023/01/14 01:48:04;;;;;;;14.80;2.65;;;11.40;52.60;;;;;;4945635;28;20062;-43
2023/01/14 01:50:33;;;;;;;20.88;4.00;;;11.40;52.60;;;;;;4945916;28;20066;-45
2023/01/14 01:53:01;;;;;;;19.73;2.92;;;11.40;52.60;;;;;;4945509;28;20051;-46
2023/01/14 01:55:31;;;;;;;22.10;3.45;;;11.30;52.60;;;;;;4941617;28;20078;-48
2023/01/14 01:57:58;;;;;;;11.88;3.15;;;11.30;52.60;;;;;;4943963;28;20074;-48
2023/01/14 02:00:27;;;;;;;17.02;2.72;;;11.30;52.70;;;;;;4945236;28;20090;-48
2023/01/14 02:02:58;;;;;;;20.13;3.45;;;11.30;52.70;;;;;;4943459;28;20078;-48
2023/01/14 02:05:28;;;;;;;19.13;3.25;;;11.30;52.80;;;;;;4946905;28;20533;-44
2023/01/14 02:07:57;;;;;;;12.43;2.88;;;11.30;53.40;;;;;;4934294;28;20047;-48
2023/01/14 02:10:35;;;;;;;19.65;2.65;;;11.30;53.00;;;;;;4940116;28;20722;-48
2023/01/14 02:13:28;;;;;;;18.00;3.05;;;11.30;53.00;;;;;;4943122;28;20498;-44
2023/01/14 02:16:07;;;;;;;21.58;2.88;;;11.30;52.90;;;;;;4941376;28;20054;-50
2023/01/14 02:19:04;;;;;;;24.20;3.10;;;11.30;53.00;;;;;;4943237;28;20054;-49
2023/01/14 02:21:37;;;;;;;23.58;3.50;;;11.30;53.00;;;;;;4945310;28;20047;-49
2023/01/14 02:24:43;;;;;;;19.40;3.60;;;11.30;53.10;;;;;;4944088;28;20052;-49
2023/01/14 02:27:32;;;;;;;21.52;3.35;;;11.30;53.10;;;;;;4966802;28;20067;-45
2023/01/14 02:30:29;;;;;;;21.42;3.97;;;11.30;53.10;;;;;;4943584;28;20483;-48
2023/01/14 02:33:04;;;;;;;22.98;3.85;;;11.30;53.20;;;;;;4943409;28;20051;-46
2023/01/14 02:35:42;;;;;;;17.40;2.78;;;11.30;53.20;;;;;;4940460;28;20055;-49
2023/01/14 02:38:24;;;;;;;19.48;3.00;;;11.30;53.20;;;;;;4941256;28;20058;-46
2023/01/14 02:40:58;;;;;;;19.15;2.72;;;11.30;53.20;;;;;;4976375;28;20526;-48
2023/01/14 02:46:26;;;;;;;22.08;3.33;;;11.30;53.20;;;;;;4943935;28;20050;-46
2023/01/14 02:48:55;;;;;;;24.48;3.85;;;11.20;53.20;;;;;;4943778;28;20063;-44
2023/01/14 02:51:23;;;;;;;13.38;2.70;;;11.30;53.20;;;;;;4941213;28;20059;-45
2023/01/14 02:53:50;;;;;;;21.77;3.35;;;11.30;53.10;;;;;;4942182;28;20052;-45
2023/01/14 02:56:18;;;;;;;14.85;2.55;;;11.30;53.10;;;;;;4932120;28;20078;-48
2023/01/14 02:59:16;;;;;;;26.52;3.45;;;11.20;53.00;;;;;;4940515;28;20506;-46
2023/01/14 03:02:13;;;;;;;19.30;2.97;;;11.20;52.90;;;;;;4941896;28;20059;-48
2023/01/14 03:04:56;;;;;;;26.95;3.17;;;11.30;52.90;;;;;;4955889;28;20504;-48
2023/01/14 03:07:29;;;;;;;18.00;2.45;;;11.20;52.80;;;;;;4960700;28;20058;-46
2023/01/14 03:10:04;;;;;;;11.07;2.27;;;11.30;52.80;;;;;;4941337;28;20070;-48
2023/01/14 03:12:39;;;;;;;16.88;2.60;;;11.20;52.70;;;;;;4942990;28;20479;-47
2023/01/14 03:15:16;;;;;;;21.42;3.22;;;11.20;52.60;;;;;;4939505;28;20055;-46
2023/01/14 03:17:50;;;;;;;15.20;2.67;;;11.20;53.10;;;;;;4941171;28;20055;-45
2023/01/14 03:20:22;;;;;;;13.03;2.60;;;11.20;52.60;;;;;;4936378;28;20392;-45
2023/01/14 03:22:51;;;;;;;12.27;2.05;;;11.20;52.60;;;;;;4944029;28;20489;-45
2023/01/14 03:25:21;;;;;;;13.05;2.40;;;11.10;52.50;;;;;;4969016;28;20493;-48
2023/01/14 03:27:49;;;;;;;22.60;3.10;;;11.10;52.50;;;;;;4937649;28;20056;-45
2023/01/14 03:30:20;;;;;;;22.65;3.58;;;11.10;52.50;;;;;;4931370;28;20070;-46
2023/01/14 03:32:53;;;;;;;16.60;3.10;;;11.10;52.50;;;;;;4935669;28;20070;-49
2023/01/14 03:35:25;;;;;;;15.40;2.55;;;11.10;52.50;;;;;;4937768;28;20055;-46
2023/01/14 03:37:58;;;;;;;20.42;3.88;;;11.00;52.50;;;;;;4940674;28;20416;-48
2023/01/14 03:40:27;;;;;;;21.48;3.30;;;10.90;52.50;;;;;;4937365;28;21116;-48
2023/01/14 03:42:59;;;;;;;14.52;2.80;;;10.90;52.60;;;;;;4936359;28;20488;-47
2023/01/14 03:45:31;;;;;;;23.00;3.88;;;10.90;52.70;;;;;;4935220;28;20518;-46
2023/01/14 03:48:00;;;;;;;21.52;3.08;;;10.90;52.70;;;;;;4941649;28;20529;-45
2023/01/14 03:50:33;;;;;;;17.20;2.97;;;10.90;52.70;;;;;;4941069;28;20051;-44
2023/01/14 03:53:16;;;;;;;19.13;2.58;;;10.80;52.70;;;;;;4937129;28;20066;-48
2023/01/14 03:55:54;;;;;;;16.88;3.00;;;10.80;52.70;;;;;;4936462;28;20043;-47
2023/01/14 03:58:27;;;;;;;11.48;1.80;;;10.80;52.70;;;;;;4943068;28;20072;-47
2023/01/14 04:00:57;;;;;;;16.55;3.15;;;10.80;52.80;;;;;;4934363;28;20065;-43
2023/01/14 04:03:27;;;;;;;21.65;3.17;;;10.80;52.80;;;;;;4941368;28;20062;-48
2023/01/14 04:05:55;;;;;;;18.75;2.70;;;10.80;52.80;;;;;;4929322;28;20048;-46
2023/01/14 04:08:25;;;;;;;16.52;2.95;;;10.70;52.80;;;;;;4940382;28;20054;-46
2023/01/14 04:10:52;;;;;;;17.38;2.65;;;10.70;52.80;;;;;;4942001;28;20427;-47
2023/01/14 04:16:05;;;;;;;16.05;2.60;;;10.70;53.00;;;;;;4947630;28;20070;-44
2023/01/14 04:18:33;;;;;;;16.20;2.72;;;10.70;52.90;;;;;;4940053;28;20058;-49
2023/01/14 04:21:01;;;;;;;18.58;3.13;;;10.70;53.00;;;;;;4947180;28;20059;-46
2023/01/14 04:23:28;;;;;;;11.63;2.33;;;10.70;53.00;;;;;;4939564;28;20051;-46
2023/01/14 04:25:57;;;;;;;35.65;3.97;;;10.70;53.00;;;;;;4940905;28;20423;-47
2023/01/14 04:28:24;;;;;;;11.10;2.30;;;10.70;53.00;;;;;;4940580;28;20499;-46
2023/01/14 04:30:52;;;;;;;14.55;2.47;;;10.70;52.90;;;;;;4944255;28;20073;-45
2023/01/14 04:33:19;;;;;;;18.25;2.38;;;10.70;53.00;;;;;;4942699;28;20516;-47
2023/01/14 04:35:49;;;;;;;13.05;2.30;;;10.70;53.00;;;;;;4939686;28;20066;-44
2023/01/14 04:38:17;;;;;;;10.13;2.22;;;10.70;53.00;;;;;;4935556;28;20061;-44
2023/01/14 04:40:44;;;;;;;12.55;2.60;;;10.70;53.00;;;;;;4935268;28;20530;-42
2023/01/14 04:43:11;;;;;;;17.33;2.90;;;10.70;53.00;;;;;;4929394;28;20446;-45
2023/01/14 04:45:38;;;;;;;16.88;3.10;;;10.70;53.00;;;;;;4945170;28;20049;-46
2023/01/14 04:48:05;;;;;;;13.82;2.28;;;10.70;52.90;;;;;;4943614;28;20046;-43
2023/01/14 04:50:33;;;;;;;19.88;3.80;;;10.70;53.00;;;;;;4954042;28;20055;-45
2023/01/14 04:53:10;;;;;;;14.25;2.50;;;10.60;52.90;;;;;;4950077;28;20055;-48
2023/01/14 04:55:39;;;;;;;9.82;2.42;;;10.60;52.90;;;;;;4946911;28;20064;-50
2023/01/14 04:58:08;;;;;;;14.48;2.70;;;10.60;53.00;;;;;;4949700;28;20062;-45
2023/01/14 05:00:36;;;;;;;14.48;2.50;;;10.60;53.10;;;;;;4953108;28;20055;-46
2023/01/14 05:03:04;;;;;;;16.35;3.17;;;10.60;53.10;;;;;;4949398;28;20482;-42
2023/01/14 05:05:32;;;;;;;13.05;2.70;;;10.60;53.10;;;;;;4992445;28;20049;-49
2023/01/14 05:07:59;;;;;;;19.15;2.75;;;10.60;53.10;;;;;;4959332;28;20054;-47
2023/01/14 05:10:28;;;;;;;21.55;3.92;;;10.60;53.10;;;;;;4958231;28;20522;-46
2023/01/14 05:12:58;;;;;;;16.20;2.90;;;10.60;53.10;;;;;;4954038;28;20063;-45
2023/01/14 05:15:27;;;;;;;16.00;2.80;;;10.60;53.10;;;;;;4952930;28;20055;-47
2023/01/14 05:17:54;;;;;;;19.17;2.60;;;10.60;53.10;;;;;;4943779;28;20073;-45
2023/01/14 05:20:23;;;;;;;16.25;2.63;;;10.60;53.10;;;;;;4954158;28;20051;-44
2023/01/14 05:22:50;;;;;;;19.83;2.40;;;10.60;53.20;;;;;;4956067;28;20415;-45
2023/01/14 05:25:18;;;;;;;16.05;2.80;;;10.60;53.20;;;;;;4952340;28;20054;-47
2023/01/14 05:27:46;;;;;;;14.63;2.47;;;10.50;53.20;;;;;;4958785;28;20403;-46
2023/01/14 05:30:14;;;;;;;12.27;2.10;;;10.60;53.30;;;;;;4953768;28;20065;-45
2023/01/14 05:32:41;;;;;;;17.10;2.50;;;10.50;53.30;;;;;;4959550;28;20046;-45
2023/01/14 05:35:09;;;;;;;15.02;2.67;;;10.50;53.30;;;;;;4948100;28;20051;-48
2023/01/14 05:37:37;;;;;;;20.98;3.90;;;10.60;53.50;;;;;;4957619;28;20059;-45
2023/01/14 05:40:04;;;;;;;16.10;2.90;;;10.60;53.50;;;;;;4949217;28;20050;-44
2023/01/14 05:48:03;;;;;;;9.75;2.15;;;10.60;53.40;;;;;;4953161;28;20087;-45
2023/01/14 05:50:31;;;;;;;15.77;3.17;;;10.60;53.40;;;;;;4937596;28;20387;-45
2023/01/14 05:52:58;;;;;;;17.38;2.78;;;10.60;53.40;;;;;;4989337;28;20066;-45
2023/01/14 05:55:25;;;;;;;12.00;2.28;;;10.60;53.10;;;;;;4953308;28;20085;-44
2023/01/14 05:57:52;;;;;;;16.95;2.58;;;10.60;53.50;;;;;;4953567;28;20507;-44
2023/01/14 06:08:40;;;;;;;19.23;4.45;;;10.60;53.70;;;;;;4959177;28;20129;-44
2023/01/14 06:11:08;;;;;;;19.45;3.55;;;10.60;53.60;;;;;;4949944;28;20074;-45
2023/01/14 06:13:36;;;;;;;23.20;2.97;;;10.60;53.60;;;;;;4955158;28;20067;-48
2023/01/14 06:16:07;;;;;;;15.73;2.67;;;10.60;53.60;;;;;;4950758;28;20047;-45
2023/01/14 06:18:41;;;;;;;15.48;2.70;;;10.60;53.70;;;;;;4951857;28;20055;-45
2023/01/14 06:21:11;;;;;;;11.60;2.53;;;10.60;53.70;;;;;;4950439;28;20058;-43
2023/01/14 06:23:38;;;;;;;12.52;2.40;;;10.60;53.80;;;;;;4944109;28;20062;-45
2023/01/14 06:26:09;;;;;;;16.13;2.60;;;10.60;53.80;;;;;;4947252;28;20076;-48
2023/01/14 06:28:36;;;;;;;17.58;2.05;;;10.60;53.80;;;;;;4949855;28;20522;-45
2023/01/14 06:31:10;;;;;;;22.58;2.70;;;10.60;53.80;;;;;;4957006;28;20077;-47
2023/01/14 06:33:38;;;;;;;17.75;2.97;;;10.60;53.90;;;;;;4952167;28;20074;-44
2023/01/14 06:36:06;;;;;;;15.35;2.33;;;10.60;53.80;;;;;;4941001;28;20051;-46
2023/01/14 06:38:34;;;;;;;15.70;2.53;;;10.60;53.90;;;;;;4950754;28;20892;-46
2023/01/14 06:41:02;;;;;;;16.38;3.05;;;10.60;53.90;;;;;;4949553;28;20486;-50
2023/01/14 06:43:30;;;;;;;19.50;3.13;;;10.60;54.00;;;;;;4956798;28;20396;-48
2023/01/14 06:45:59;;;;;;;17.77;3.15;;;10.60;54.00;;;;;;4950643;28;20495;-46
2023/01/14 06:48:28;;;;;;;18.98;2.50;;;10.50;54.00;;;;;;4950466;28;20051;-50
2023/01/14 06:50:56;;;;;;;22.92;3.13;;;10.50;54.10;;;;;;4945965;28;20515;-45
2023/01/14 06:53:24;;;;;;;13.35;3.05;;;10.50;54.20;;;;;;4950513;28;20061;-47
2023/01/14 06:55:52;;;;;;;21.00;2.95;;;10.60;54.30;;;;;;4951354;28;20062;-47
2023/01/14 06:58:19;;;;;;;22.63;3.38;;;10.60;54.30;;;;;;4946477;28;20541;-45
2023/01/14 07:00:46;;;;;;;15.55;3.75;;;10.60;54.30;;;;;;4953475;28;20066;-44
2023/01/14 07:03:14;;;;;;;20.70;4.18;;;10.60;54.80;;;;;;4948085;28;20502;-47
2023/01/14 07:05:42;;;;;;;16.13;2.95;;;10.60;54.30;;;;;;4957498;28;20055;-46
2023/01/14 07:08:09;;;;;;;15.85;3.15;;;10.50;54.40;;;;;;4954948;28;20062;-45
2023/01/14 07:10:37;;;;;;;22.70;3.40;;;10.50;54.30;;;;;;4947568;28;20051;-45
2023/01/14 07:13:04;;;;;;;22.08;3.08;;;10.50;54.30;;;;;;4946916;28;20054;-48
2023/01/14 07:15:31;;;;;;;21.77;2.83;;;10.50;54.40;;;;;;4952075;28;20058;-48
2023/01/14 07:17:58;;;;;;;16.52;2.95;;;10.50;54.40;;;;;;4952636;28;20069;-49
2023/01/14 07:20:25;;;;;;;15.25;3.17;;;10.50;54.50;;;;;;4953018;28;20518;-45
2023/01/14 07:22:54;;;;;;;22.42;3.55;;;10.60;54.60;;;;;;4946138;28;20062;-46
2023/01/14 07:25:21;;;;;;;21.42;3.70;;;10.60;54.70;;;;;;4953019;28;20533;-47
2023/01/14 07:27:52;;;;;;;18.85;2.92;;;10.60;54.70;;;;;;4938692;28;20066;-45
2023/01/14 07:30:19;;;;;;;26.58;3.75;;;10.60;54.90;;;;;;4952363;28;20408;-44
2023/01/14 07:32:46;;;;;;;23.30;3.42;;;10.60;54.90;;;;;;4951282;28;20069;-46
2023/01/14 07:35:14;;;;;;;17.23;3.42;;;10.60;54.90;;;;;;4951353;28;20609;-49
2023/01/14 07:37:41;;;;;;;17.45;3.45;;;10.60;54.90;;;;;;4946828;28;20048;-46
2023/01/14 07:40:11;;;;;;;16.73;3.38;;;10.60;54.90;;;;;;4957279;28;20085;-47
2023/01/14 07:42:38;;;;;;;20.25;3.35;;;10.60;55.00;;;;;;4946877;28;20055;-47
2023/01/14 07:45:07;;;;;;;21.45;3.00;;;10.60;55.00;;;;;;4952201;28;20051;-47
2023/01/14 07:47:34;;;;;;;17.63;3.15;;;10.60;55.00;;;;;;4954101;28;20051;-48
2023/01/14 07:50:02;;;;;;;20.00;3.60;;;10.60;55.10;;;;;;4952566;28;20082;-48
2023/01/14 07:52:29;;;;;;;38.28;4.50;;;10.60;55.20;;;;;;4954794;28;20062;-44
2023/01/14 07:54:56;;;;;;;22.92;3.70;;;10.60;55.40;;;;;;4951908;28;20506;-46
2023/01/14 07:57:24;;;;;;;22.90;3.75;;;10.60;55.60;;;;;;4952191;28;20061;-45
2023/01/14 07:59:52;;;;;;;20.45;4.15;;;10.60;55.80;;;;;;4945931;28;20050;-46
2023/01/14 08:02:19;;;;;;;24.70;4.03;;;10.60;55.90;;;;;;4986458;28;20057;-48
2023/01/14 08:04:46;;;;;;;16.70;3.25;;;10.60;56.10;;;;;;4950954;28;20434;-45
2023/01/14 08:07:14;;;;;;;16.25;2.88;;;10.60;56.20;;;;;;4946419;28;21158;-47
2023/01/14 08:09:41;;;;;;;18.30;2.80;;;10.60;56.30;;;;;;4946677;28;20051;-45
2023/01/14 08:12:08;;;;;;;14.20;2.78;;;10.60;56.30;;;;;;4944116;28;20058;-46
2023/01/14 08:14:37;;;;;;;15.30;3.03;;;10.60;56.30;;;;;;4948890;28;20058;-46
2023/01/14 08:17:05;;;;;;;20.52;3.05;;;10.60;56.50;;;;;;4945792;28;20388;-48
2023/01/14 08:19:32;;;;;;;11.68;3.28;;;10.60;56.50;;;;;;4956884;28;20051;-44
2023/01/14 08:21:59;;;;;;;16.65;2.97;;;10.60;56.60;;;;;;4953767;28;20519;-48
2023/01/14 08:24:26;;;;;;;17.67;3.28;;;10.60;56.50;;;;;;4942617;28;20058;-43
2023/01/14 08:26:54;;;;;;;16.08;2.33;;;10.60;56.60;;;;;;4953396;28;20051;-46
2023/01/14 08:29:21;;;;;;;21.48;3.53;;;10.60;56.60;;;;;;4948387;28;20052;-44
2023/01/14 08:31:54;;;;;;;19.55;2.95;;;10.60;56.70;;;;;;4949448;28;20062;-46
2023/01/14 08:34:22;;;;;;;13.65;2.90;;;10.60;56.80;;;;;;4957511;28;20058;-44
2023/01/14 08:36:49;;;;;;;15.07;2.33;;;10.60;56.80;;;;;;4949997;28;20062;-46
2023/01/14 08:39:17;;;;;;;13.18;2.30;;;10.60;56.80;;;;;;4955638;28;20055;-45
2023/01/14 08:41:44;;;;;;;11.40;2.42;;;10.70;56.90;;;;;;4948076;28;20727;-45
2023/01/14 08:44:12;;;;;;;13.05;2.60;;;10.70;56.90;;;;;;4951958;28;20765;-44
2023/01/14 08:46:41;;;;;;;10.43;2.08;;;10.70;56.90;;;;;;4947333;28;20062;-46
2023/01/14 08:49:11;;;;;;;12.90;2.28;;;10.70;57.00;;;;;;4949387;28;20058;-45
2023/01/14 08:51:38;;;;;;;12.55;1.90;;;10.70;57.10;;;;;;4944501;28;20057;-46
2023/01/14 08:54:06;;;;;;;6.75;1.45;;;10.70;57.10;;;;;;4946846;28;20218;-44
2023/01/14 08:56:34;;;;;;;9.27;1.65;;;10.70;57.10;;;;;;4941015;28;20051;-48
2023/01/14 08:59:02;;;;;;;11.88;1.90;;;10.70;57.10;;;;;;4953136;28;20054;-47
2023/01/14 09:01:30;;;;;;;15.32;2.45;;;10.80;57.20;;;;;;4947160;28;20546;-44
2023/01/14 09:04:00;;;;;;;13.40;2.40;;;10.70;57.20;;;;;;4949821;28;20059;-44
2023/01/14 09:06:28;;;;;;;9.30;1.98;;;10.80;57.30;;;;;;4950235;28;20056;-45
2023/01/14 09:17:17;;;;;;;6.40;1.40;;;10.90;57.20;;;;;;4964399;28;20070;-47
2023/01/14 09:19:48;;;;;;;11.18;2.20;;;10.90;57.20;;;;;;4950450;28;20413;-46
2023/01/14 09:22:19;;;;;;;10.13;1.92;;;10.90;57.20;;;;;;4958533;28;20059;-45
2023/01/14 09:24:47;;;;;;;10.20;2.00;;;10.90;57.10;;;;;;4947891;28;20062;-47
2023/01/14 09:27:15;;;;;;;10.73;1.60;;;10.90;57.10;;;;;;4954075;28;20069;-43
2023/01/14 09:29:43;;;;;;;9.13;1.48;;;11.00;57.10;;;;;;4944459;28;20044;-44
2023/01/14 09:32:12;;;;;;;8.95;2.15;;;11.00;57.10;;;;;;4951104;28;20054;-46
2023/01/14 09:34:41;;;;;;;4.55;1.20;;;11.00;57.00;;;;;;4956365;28;20406;-47
2023/01/14 09:37:08;;;;;;;5.97;1.25;;;11.00;57.00;;;;;;4942752;28;20059;-44
2023/01/14 09:39:37;;;;;;;4.90;1.35;;;11.00;57.00;;;;;;4953035;28;20491;-46
2023/01/14 09:42:08;;;;;;;8.43;1.42;;;11.00;57.10;;;;;;4951486;28;20055;-45
2023/01/14 09:44:35;;;;;;;7.90;1.38;;;11.00;57.10;;;;;;4948663;28;20059;-43
2023/01/14 09:47:03;;;;;;;6.38;1.40;;;11.00;57.10;;;;;;4944161;28;20054;-45
2023/01/14 09:49:31;;;;;;;7.22;1.67;;;11.10;57.20;;;;;;4943995;28;20063;-46
2023/01/14 09:52:15;;;;;;;8.45;1.63;;;11.10;57.30;;;;;;4956042;28;20061;-47
2023/01/14 09:54:55;;;;;;;4.38;1.20;;;11.10;57.40;;;;;;4948402;28;20058;-43
2023/01/14 09:57:30;;;;;;;6.00;1.30;;;11.10;57.30;;;;;;4943319;28;20051;-46
2023/01/14 10:00:01;;;;;;;6.93;1.20;;;11.20;57.40;;;;;;4948577;28;20051;-45
2023/01/14 10:02:35;;;;;;;6.38;1.10;;;11.10;57.40;;;;;;4958810;28;20058;-45
2023/01/14 10:05:14;;;;;;;4.72;1.10;;;11.20;57.50;;;;;;4949997;28;20051;-46
2023/01/14 10:07:42;;;;;;;6.47;1.20;;;11.20;57.50;;;;;;4959256;28;20066;-47
2023/01/14 10:10:23;;;;;;;6.55;1.13;;;11.20;57.50;;;;;;4960323;28;20046;-44
2023/01/14 10:12:53;;;;;;;8.90;1.20;;;11.20;57.60;;;;;;4955773;28;20058;-49
2023/01/14 10:15:32;;;;;;;4.22;1.30;;;11.20;57.50;;;;;;4954622;28;20055;-46
2023/01/14 10:18:05;;;;;;;6.07;1.27;;;11.20;57.60;;;;;;4957300;28;20522;-43
2023/01/14 10:20:36;;;;;;;6.35;2.05;;;11.30;57.70;;;;;;4958376;28;20078;-44
2023/01/14 10:23:11;;;;;;;6.55;1.00;;;11.30;57.80;;;;;;4951134;28;20058;-46
2023/01/14 10:25:45;;;;;;;6.50;1.25;;;11.30;57.80;;;;;;4958754;28;20059;-44
2023/01/14 10:28:13;;;;;;;;;;;11.40;57.80;;;;;;4992183;28;20054;-46
2023/01/14 10:30:43;;;;;;;5.95;1.15;;;11.40;57.80;;;;;;4952527;28;21929;-45
2023/01/14 10:33:15;;;;;;;8.73;1.60;;;11.40;57.60;;;;;;4950022;28;20050;-47
2023/01/14 10:35:45;;;;;;;4.60;1.00;;;11.40;57.70;;;;;;4944460;28;20064;-45
2023/01/14 10:38:17;;;;;;;6.53;1.08;;;11.40;57.70;;;;;;4952088;28;20051;-44
2023/01/14 10:40:47;;;;;;;5.82;1.30;;;11.40;57.70;;;;;;4954403;28;20074;-44
2023/01/14 10:43:22;;;;;;;3.88;1.33;;;11.40;57.80;;;;;;4945490;28;20460;-47
2023/01/14 10:45:49;;;;;;;7.70;1.25;;;11.50;57.90;;;;;;4952073;28;20503;-45
2023/01/14 10:48:20;;;;;;;11.48;1.30;;;11.50;57.80;;;;;;4947411;28;20055;-47
2023/01/14 10:50:48;;;;;;;7.28;1.20;;;11.50;57.90;;;;;;4959036;28;20054;-46
2023/01/14 10:53:19;;;;;;;10.25;1.13;;;11.50;57.90;;;;;;4948321;28;20059;-47
2023/01/14 10:55:57;;;;;;;6.50;1.50;;;11.50;57.90;;;;;;4945463;28;20423;-47
2023/01/14 10:58:31;;;;;;;7.88;0.90;;;11.50;57.90;;;;;;4948967;28;20047;-47
2023/01/14 11:01:03;;;;;;;;;;;11.60;58.00;;;;;;4955765;28;20434;-44
2023/01/14 11:03:32;;;;;;;5.63;1.17;;;11.60;58.00;;;;;;4947310;28;19922;-43
2023/01/14 11:06:02;;;;;;;5.57;0.80;;;11.60;57.90;;;;;;4955979;28;20070;-45
2023/01/14 11:08:34;;;;;;;4.97;1.05;;;11.60;57.80;;;;;;4948242;28;20071;-47
2023/01/14 11:11:07;;;;;;;5.65;1.02;;;11.60;57.90;;;;;;4954127;28;20086;-48
2023/01/14 11:13:41;;;;;;;6.93;1.30;;;11.70;58.00;;;;;;4950701;28;20062;-45
2023/01/14 11:16:28;;;;;;;6.22;0.90;;;11.70;57.90;;;;;;4956934;28;20055;-47
2023/01/14 11:18:58;;;;;;;12.23;1.33;;;11.70;57.90;;;;;;4952668;28;21545;-43
2023/01/14 11:21:28;;;;;;;6.25;1.52;;;11.70;57.80;;;;;;4951267;28;20476;-45
2023/01/14 11:23:57;;;;;;;4.95;1.08;;;11.80;57.80;;;;;;4950915;28;20103;-48
2023/01/14 11:26:29;;;;;;;6.88;1.30;;;11.80;57.80;;;;;;4946736;28;20055;-44
2023/01/14 11:29:05;;;;;;;4.70;0.95;;;11.80;57.80;;;;;;4953714;28;20055;-45
2023/01/14 11:31:35;;;;;;;6.10;1.02;;;11.80;57.80;;;;;;4963873;28;20051;-49
2023/01/14 11:34:03;;;;;;;6.57;1.30;;;11.90;57.80;;;;;;4960432;28;20050;-47
2023/01/14 11:36:33;;;;;;;6.10;1.13;;;11.90;57.80;;;;;;4962149;28;20418;-47
2023/01/14 11:39:03;;;;;;;6.88;1.10;;;11.90;57.80;;;;;;4958639;28;20065;-49
2023/01/14 11:41:35;;;;;;;5.70;1.10;;;11.90;57.70;;;;;;4959447;28;20593;-44
2023/01/14 11:44:05;;;;;;;4.85;0.95;;;12.00;57.70;;;;;;4958903;28;20494;-44
2023/01/14 11:46:34;;;;;;;3.97;1.02;;;12.00;57.70;;;;;;4958601;28;20498;-47
2023/01/14 11:49:14;;;;;;;4.30;0.95;;;12.00;57.70;;;;;;4962362;28;20414;-46
2023/01/14 11:51:41;;;;;;;4.43;1.20;;;12.00;57.60;;;;;;4962844;28;20055;-48
2023/01/14 11:54:17;;;;;;;9.38;1.23;;;12.00;57.60;;;;;;4961907;28;20718;-46
2023/01/14 11:56:47;;;;;;;5.00;0.88;;;12.10;57.70;;;;;;4961552;28;20062;-45
2023/01/14 11:59:25;;;;;;;3.95;0.85;;;12.10;57.80;;;;;;4962320;28;20055;-47
2023/01/14 12:01:58;;;;;;;7.95;1.02;;;12.10;57.80;;;;;;4962934;28;20063;-47
2023/01/14 12:04:32;;;;;;;4.07;1.17;;;12.10;57.90;;;;;;4961600;28;20058;-44
2023/01/14 12:07:01;;;;;;;;;;;12.10;57.90;;;;;;4963716;28;20074;-48
2023/01/14 12:09:34;;;;;;;6.80;0.90;;;12.20;58.10;;;;;;4961541;28;19928;-45
2023/01/14 12:12:07;;;;;;;5.73;0.90;;;12.20;58.00;;;;;;4962596;28;20058;-46
2023/01/14 12:17:30;;;;;;;3.97;0.77;;;12.20;58.30;;;;;;4968115;28;20536;-44
2023/01/14 12:20:02;;;;;;;2.33;0.55;;;12.20;58.40;;;;;;4961313;28;20047;-45
2023/01/14 12:22:34;;;;;;;4.30;0.70;;;12.20;58.50;;;;;;4961788;28;20055;-44
2023/01/14 12:25:13;;;;;;;3.10;0.70;;;12.20;58.60;;;;;;4961522;28;20422;-48
2023/01/14 12:27:50;;;;;;;5.45;0.90;;;12.20;58.70;;;;;;4958935;28;20058;-48
2023/01/14 12:30:26;;;;;;;3.28;0.52;;;12.20;58.80;;;;;;4961277;28;20046;-47
2023/01/14 12:33:01;;;;;;;6.50;0.95;;;12.20;58.80;;;;;;4953735;28;20434;-44
2023/01/14 12:35:34;;;;;;;2.53;0.50;;;12.20;58.80;;;;;;4962943;28;20062;-46
2023/01/14 12:45:41;;;;;;;1.67;0.38;;;12.20;58.80;;;;;;4962985;28;20415;-44
2023/01/14 12:46:35;;;;;;;2.58;0.60;;;12.20;58.90;;;;;;4967970;28;20501;-45
2023/01/14 12:49:02;;;;;;;2.88;0.50;;;12.10;58.90;;;;;;4960175;28;20062;-48
2023/01/14 12:51:32;;;;;;;2.47;0.70;;;12.10;58.90;;;;;;4962344;28;20055;-47
2023/01/14 12:54:02;;;;;;;5.00;0.93;;;12.10;59.00;;;;;;4961423;28;20063;-45
2023/01/14 12:56:32;;;;;;;4.38;0.77;;;12.10;59.00;;;;;;4960477;28;20501;-45
2023/01/14 12:59:04;;;;;;;7.60;0.70;;;12.10;59.00;;;;;;4961709;28;20061;-48
2023/01/14 13:01:37;;;;;;;1.70;0.60;;;12.20;59.20;;;;;;4963264;28;20423;-48
2023/01/14 13:04:14;;;;;;;1.35;0.57;;;12.20;59.10;;;;;;4961721;28;20058;-47
2023/01/14 13:06:43;;;;;;;3.83;0.55;;;12.20;59.20;;;;;;4961084;28;20054;-45
2023/01/14 13:09:20;;;;;;;1.67;0.50;;;12.10;59.10;;;;;;4959061;28;20055;-47
2023/01/14 13:11:52;;;;;;;3.72;0.50;;;12.20;59.10;;;;;;4962758;28;21358;-45
2023/01/14 13:14:34;;;;;;;3.20;0.40;;;12.20;59.10;;;;;;4962370;28;20058;-42
2023/01/14 13:17:05;;;;;;;1.30;0.35;;;12.20;59.10;;;;;;4959280;28;20101;-46
2023/01/14 13:19:53;;;;;;;2.03;0.40;;;12.20;59.00;;;;;;4960973;28;20051;-43
2023/01/14 13:22:43;;;;;;;1.23;0.40;;;12.20;59.10;;;;;;4962692;28;20495;-48
2023/01/14 13:25:37;;;;;;;2.38;0.70;;;12.20;58.90;;;;;;4982200;28;20063;-45
2023/01/14 13:28:19;;;;;;;;;;;12.20;58.80;;;;;;5014019;28;20056;-45
2023/01/14 13:30:50;;;;;;;0.98;0.40;;;12.20;58.80;;;;;;5039794;28;19925;-47
2023/01/14 13:33:24;;;;;;;1.75;0.40;;;12.20;58.70;;;;;;5042263;28;20056;-48
2023/01/14 13:36:17;;;;;;;5.35;0.70;;;12.20;59.00;;;;;;5045059;28;20065;-45